Monday, January 26, 2015
06:23 UTC
  |  Log In   |  Register Free
Airport Search:

Kingsville Nas Airport
(KNQI)

FAA data valid effective January 08, 2015 - March 05, 2015 (unless otherwise noted).

 
 
 
 
 
 
 
 
 
 
 
 
 
 

Current Aviation Weather for Kingsville Nas Airport (KNQI)

The most recent METAR observation for KNQI was updated at: 0611
METAR Summary (Translated METAR)
KNQI
260556Z AUTO 28005KT 10SM CLR 10/06 A3022 RMK AO2 SLP229 T01000056 10189 20100 402330033 50012 TSNO $
KRBO
252355Z AUTO 33005KT 10SM CLR 18/06 A3012 RMK AO2 T01800056 10234 20180
(17.5 nm NE from KNQI)
KALI
260553Z AUTO 29006KT 10SM CLR 10/04 A3022 RMK AO2 SLP231 T01000044 10183 20100 402500061 51013 $
(18.2 nm NW from KNQI)
TAF Summary (Translated TAF)
KNQI
2523/2623 32005KT 9999 SCT150 BKN200 QNH3002INS TEMPO 2612/2614 8000 HZ BECMG 2618/2620 14005KT SKC QNH3009INS AUTOMATED SENSOR METWATCH 2603 TIL 2612 T07/2611Z T23/2620Z
KALI
(18.2 nm NW from KNQI)
260520Z 2606/2706 31006KT P6SM SCT250 FM261500 VRB04KT P6SM SCT250
  Airport Weather Conditions for KNQI

 Current Weather at NQI
50° F
Fair
West winds at 5.8 mph
NQI NOAA Radar

Pressure: 30.22 in
Humidity: 74%
Wind: West at 5.8 MPH (5 KT)
Dew Point: 42.1°F
Visibility: 10.00 mi


Airport Weather Forecast for KNQI

Translated METAR and TAF for KNQI
Translated METAR for KNQI (0623 UTC 26 January 2015)
found at http://aviationweather.gov/adds/metars/
 
METAR text: KNQI 260556Z AUTO 28005KT 10SM CLR 10/06 A3022 RMK AO2 SLP229 T01000056 10189 20100 402330033 50012 TSNO $
Conditions at: KNQI (KINGSVILLE NAS , TX, US) observed 0556 UTC 26 January 2015
Temperature: 10.0°C (50°F)
Dewpoint: 5.6°C (42°F) [RH = 74%]
Pressure (altimeter): 30.22 inches Hg (1023.5 mb)
[Sea-level pressure: 1022.9 mb]
Winds: from the W (280 degrees) at 6 MPH (5 knots; 2.6 m/s)
Visibility: 10 or more miles (16+ km)
Ceiling: at least 12,000 feet AGL
Clouds: sky clear below 12,000 feet AGL
Weather:
SOME DATA ABOVE MAY BE INACCURATE!!!
"$" is an indication the sensor requires maintenance
Translated TAF for KNQI
Forecast for: KNQI (KINGSVILLE NAS , TX, US)
TAF Text: TAF KNQI 2523/2623 32005KT 9999 SCT150 BKN200 QNH3002INS
Forecast period: 2300 UTC 25 January 2015 to 1800 UTC 26 January 2015
Forecast type: FROM: standard forecast or significant change
Winds: from the NW (320 degrees) at 6 MPH (5 knots; 2.6 m/s)
Visibility: 6 or more miles (10+ km)
Ceiling: 20000 feet AGL
Clouds: scattered clouds at 15000 feet AGL
broken clouds at 20000 feet AGL
Weather: no significant weather forecast for this period
TAF Text: TEMPO 2612/2614 8000 HZ
Forecast period: 1200 to 1400 UTC 26 January 2015
Forecast type: TEMPORARY: The following changes expected for less than half the time period
Visibility: 5 miles (8 km)
Weather: HZ  (haze)
TAF Text: BECMG 2618/2620 14005KT SKC QNH3009INS AUTOMATED SENSOR METWATCH 2603 TIL 2612 T07/2611Z T23/2620Z
Forecast period: 1800 to 2300 UTC 26 January 2015
Forecast type: BECOMING: Conditions expected to become as follows by 2000 UTC 26 January 2015
Winds: from the SE (140 degrees) at 6 MPH (5 knots; 2.6 m/s)
Visibility: 1.62 miles (2.61 km)
Clouds: clear skies
Weather: no significant weather forecast for this period

Find All Airport Services Find A Hotel Find A Rental Car Find A Golf Course Find A Restaurant $100 Hamburger



FBO's on the Field
FBO Company Facility Photos Services Transportation Aviation Fuel Prices: Prices include tax
Catering Weather Repair Courtesy Rental Type 100LL JetA JetA+ MOGAS 8087
 
Add another FBO Facility Photos Catering Weather Repair Courtesy Rental Type 100LL JetA JetA+ MOGAS 8087
Services Transportation Aviation Fuel Prices: Prices include tax
There are no FBO's currently reporting fuel at NQI. List your FBO now


model-print
model-print
model-print
model-print